Rio Grande, Texas
Current Conditions -  °F | °C
As of 3:35 AM on Tuesday 21 Oct 2014 (Local Time) from KEBG Reporting Station
Haze Haze  
Wind Chill: 70°   Ceiling: Unl
Heat Index: 70°   Visibility: 3mi
Dew Point: 67°   Wind: 3mph
Humidity: 92%   Direction: 300°WNW
Pressure: 29.94"   Gusts: NA
Location:  26.5735°N, 98.695°W
Report Text: KEBG 210835Z AUTO 30003KT 3SM BR SCT023 SCT037 21/20 A2994 RMK AO2 T02110197
Loading
Personal Weather Stations






























Interactive Weather Map New forecast layout! Learn more

10-Day Weather Forecast

Advertisements
Track Severe Weather on mobile